Tiempo atmosférico en la estación meteorológica de Buñol, València/Valencia (585 m.)



Fecha
DESCASC
Temp. máxima en grados centígrados (hora)
DESCASC
Temp. mínima en grados centígrados (hora)
DESCASC
Temp. media en grados centígrados
DESCASC
Racha de viento máxima en m/sg (hora)
DESCASC
Velocidad máxima media en intervalos de 10 minutos(hora)
DESCASC
Precipitaciones diarias en mm
DESCASC
Precipitaciones de 00:00 a 06:00 en mm
DESCASC
Precipitaciones de 06:00 a 12:00 en mm
DESCASC
Precipitaciones de 12:00 a 18:00 en mm
DESCASC
Precipitaciones de 18:00 a 24:00 en mm
DESCASC
22-08-2019 28.6 (15:40) 12.2 (07:50) 20.4 7.5 (13:50) 3.61 (13:40) 0 0 0 0 0
21-08-2019 21.5 (15:50) 17.1 (23:59) 19.3 5.56 (19:10) 2.22 (10:10) 4.6 1.4 0.6 0 2.6
20-08-2019 25.8 (12:00) 20.3 (23:59) 23 10 (15:20) 4.72 (15:50) 0 0 0 0 0
19-08-2019 29.4 (15:10) 16.8 (06:30) 23.1 9.17 (17:00) 4.17 (17:00) 0 0 0 0 0
18-08-2019 37.2 (14:30) 16.5 (00:00) 26.9 8.06 (15:30) 4.17 (15:50) 0 0 0 0 0
17-08-2019 33.5 (15:10) 16.4 (00:00) 24.9 7.5 (14:20) 4.44 (15:40) 0 0 0 0 0
16-08-2019 31.3 (14:50) 15.4 (00:00) 23.3 8.06 (15:20) 4.17 (16:30) 0 0 0 0 0
15-08-2019 31.6 (14:40) 15.3 (00:00) 23.5 8.89 (16:30) 4.44 (16:00) 0 0 0 0 0
14-08-2019 33.2 (15:10) 16.1 (00:00) 24.7 8.06 (16:50) 4.72 (16:40) 0 0 0 0 0
13-08-2019 25.4 (17:10) 18.9 (00:00) 22.1 7.22 (11:10) 3.89 (10:00) 0 0 0 0 0
12-08-2019 29.4 (14:30) 16.8 (00:00) 23.1 10 (15:10) 5 (16:50) 0 0 0 0 0
11-08-2019 34.9 (15:50) 20.9 (00:00) 27.9 12.5 (14:40) 3.89 (16:30) 0 0 0 0 0
10-08-2019 33.9 (13:40) 21.6 (00:00) 27.8 8.89 (14:00) 4.72 (14:20) 0 0 0 0 0
09-08-2019 37.1 (17:00) 20 (00:00) 28.5 11.67 (15:50) 4.17 (15:50) 0 0 0 0 0
08-08-2019 37.1 (16:30) 19.1 (00:00) 28.1 8.33 (14:20) 3.33 (09:00) 0 0 0 0 0
07-08-2019 36.4 (16:50) 19.3 (00:00) 27.9 10.28 (11:40) 5 (07:40) 0 0 0 0 0
06-08-2019 34.7 (13:40) 20.8 (00:00) 27.8 8.89 (14:30) 4.72 (15:30) 0 0 0 0 0
05-08-2019 33 (15:50) 16.8 (00:00) 24.9 7.22 (16:40) 3.89 (16:40) 0 0 0 0 0
04-08-2019 32.8 (14:30) 16.5 (00:00) 24.6 7.78 (17:10) 3.89 (15:20) 0 0 0 0 0
03-08-2019 31.7 (15:50) 15.1 (00:00) 23.4 7.22 (17:00) 4.17 (16:10) 0 0 0 0 0
02-08-2019 30.3 (15:00) 15.6 (00:00) 22.9 8.61 (15:10) 5.28 (15:10) 0 0 0 0 0
01-08-2019 29.6 (15:00) 17.3 (00:00) 23.4 8.33 (13:50) 3.89 (16:00) 0 0 0 0 0
31-07-2019 24.9 (12:00) 19 (00:00) 21.9 8.89 (12:20) 4.17 (13:30) 0 0 0 0 0
30-07-2019 29.4 (13:50) 18 (00:00) 23.7 9.44 (18:00) 4.17 (15:50) 0 0 0 0 0
29-07-2019 34.8 (15:20) 15.2 (00:00) 25 7.78 (16:00) 3.89 (16:20) 0 0 0 0 0
28-07-2019 30.6 (14:40) 16.2 (00:00) 23.4 10 (15:50) 4.17 (15:20) 0 0 0 0 0
27-07-2019 30.9 (17:10) 17 (00:00) 23.9 12.78 (16:40) 5.28 (13:20) 0 0 0 0 0
26-07-2019 32.1 (14:10) 16.1 (00:00) 24.1 9.17 (18:50) 3.89 (16:10) 0 0 0 0 0

Gráficas

Temp. máximas Temp. mínimas Temp. medias Precipitaciones Rachas de viento máximas Velocidades máximas media en intervalos de 10 minutos

Datos horarios

Fecha y hora oficial Temperatura (ºC) Velocidad del viento (km/h) Dirección del viento Racha (km/h) Dirección de racha Precipitación (mm) Presión (hPa) Tendencia (hPa) Humedad (%)
2019-08-24 23:00:00 20.4 0 Calma 3 Sudoeste 0 -- -- 72
2019-08-24 22:00:00 21.8 0 Calma 6 Sur 0 -- -- 69
2019-08-24 21:00:00 24 2 Sudeste 12 Este 0 -- -- 61
2019-08-24 20:00:00 25.7 5 Sudeste 19 Sudeste 0 -- -- 54
2019-08-24 19:00:00 27 8 Sudeste 25 Este 0 -- -- 48
2019-08-24 18:00:00 27.9 13 Sudeste 27 Sudeste 0 -- -- 44
2019-08-24 17:00:00 28.8 11 Sudeste 28 Sudeste 0 -- -- 39
2019-08-24 16:00:00 29.4 10 Sudeste 27 Este 0 -- -- 40
2019-08-24 15:00:00 29.6 10 Sudeste 26 Sudeste 0 -- -- 37
2019-08-24 14:00:00 29.1 8 Sudeste 24 Sudeste 0 -- -- 37
2019-08-24 13:00:00 28.1 7 Sur 22 Este 0 -- -- 39
2019-08-24 12:00:00 26.9 5 Sur 19 Sudeste 0 -- -- 42
2019-08-24 11:00:00 24.9 4 Sur 12 Sur 0 -- -- 47
2019-08-24 10:00:00 19.6 3 Sur 10 Noroeste 0 -- -- 60
2019-08-24 09:00:00 14.9 3 Norte 11 Norte 0 -- -- 73
2019-08-24 08:00:00 12.7 5 Norte 14 Norte 0 -- -- 77
2019-08-24 07:00:00 12.7 5 Noroeste 14 Noroeste 0 -- -- 76
2019-08-24 06:00:00 13.1 5 Noroeste 14 Norte 0 -- -- 75
2019-08-24 05:00:00 13.6 4 Norte 13 Norte 0 -- -- 73
2019-08-24 04:00:00 14.1 4 Noroeste 12 Noroeste 0 -- -- 71
2019-08-24 03:00:00 14.6 4 Noroeste 11 Norte 0 -- -- 69
2019-08-24 02:00:00 15.2 3 Norte 8 Norte 0 -- -- 68
2019-08-24 01:00:00 16.1 4 Norte 7 Noroeste 0 -- -- 66
2019-08-24 00:00:00 17.3 3 Norte 6 Norte 0 -- -- 64
2019-08-23 23:00:00 19.2 0 Calma 3 Norte 0 -- -- 57
2019-08-23 22:00:00 21.3 0 Calma 8 Sudeste 0 -- -- 53
2019-08-23 21:00:00 23.8 3 Sudeste 20 Sudeste 0 -- -- 48
2019-08-23 20:00:00 26.3 8 Sudeste 21 Sudeste 0 -- -- 42
2019-08-23 19:00:00 28 9 Sudeste 23 Sudeste 0 -- -- 37
2019-08-23 18:00:00 28.7 9 Sudeste 31 Sudeste 0 -- -- 33
2019-08-23 17:00:00 29.6 7 Sur 29 Sudeste 0 -- -- 37
2019-08-23 16:00:00 29.8 8 Sudeste 31 Este 0 -- -- 34
2019-08-23 15:00:00 30 8 Sur 21 Sudeste 0 -- -- 33
2019-08-23 14:00:00 29.5 8 Sudeste 22 Sudeste 0 -- -- 32
2019-08-23 13:00:00 28.1 6 Sur 21 Este 0 -- -- 32
2019-08-23 12:00:00 26.6 8 Sudeste 20 Este 0 -- -- 37
2019-08-23 11:00:00 24.4 7 Sudeste 16 Sudeste 0 -- -- 48
2019-08-23 10:00:00 19.2 2 Norte 10 Norte 0 -- -- 67
2019-08-23 09:00:00 14.6 4 Norte 10 Noroeste 0 -- -- 83
2019-08-23 08:00:00 12.7 4 Noroeste 12 Noroeste 0 -- -- 87
2019-08-23 07:00:00 12.9 4 Noroeste 11 Noroeste 0 -- -- 85
2019-08-23 06:00:00 13.2 4 Noroeste 12 Noroeste 0 -- -- 84
2019-08-23 05:00:00 13.6 4 Norte 11 Norte 0 -- -- 81
2019-08-23 04:00:00 13.8 4 Norte 8 Norte 0 -- -- 79
2019-08-23 03:00:00 14.2 3 Norte 7 Noroeste 0 -- -- 76
2019-08-23 02:00:00 14.8 2 Norte 5 Noroeste 0 -- -- 74
2019-08-23 01:00:00 15.6 2 Norte 5 Noroeste 0 -- -- 72
2019-08-23 00:00:00 16.9 0 Calma 4 Noroeste 0 -- -- 68
2019-08-22 23:00:00 18.1 0 Calma 4 Noroeste 0 -- -- 64
2019-08-22 22:00:00 20.3 0 Calma 5 Este 0 -- -- 57
2019-08-22 21:00:00 22.7 0 Calma 15 Sudeste 0 -- -- 50
2019-08-22 20:00:00 24.7 6 Sudeste 23 Sudeste 0 -- -- 46
2019-08-22 19:00:00 26.4 9 Sudeste 20 Sudeste 0 -- -- 47
2019-08-22 18:00:00 27.4 7 Sudeste 23 Sudeste 0 -- -- 44
2019-08-22 17:00:00 27.9 10 Sudeste 25 Sudeste 0 -- -- 46
2019-08-22 16:00:00 28.6 6 Sur 23 Este 0 -- -- 46
2019-08-22 15:00:00 27.8 9 Este 26 Este 0 -- -- 44
2019-08-22 14:00:00 26.6 7 Este 27 Sudeste 0 -- -- 49
2019-08-22 13:00:00 26.1 6 Sudeste 19 Sudeste 0 -- -- 52
2019-08-22 12:00:00 24.5 5 Sudeste 19 Sudeste 0 -- -- 58
2019-08-22 11:00:00 22.1 4 Sudeste 13 Este 0 -- -- 66
2019-08-22 10:00:00 17.4 0 Calma 7 Noroeste 0 -- -- 87
2019-08-22 09:00:00 14 3 Norte 12 Norte 0 -- -- 94
2019-08-22 08:00:00 12.2 5 Norte 12 Noroeste 0 -- -- 95
2019-08-22 07:00:00 12.5 5 Noroeste 10 Norte 0 -- -- 94
2019-08-22 06:00:00 13 3 Norte 12 Noroeste 0 -- -- 93
2019-08-22 05:00:00 13.5 5 Norte 13 Norte 0 -- -- 93
2019-08-22 04:00:00 14.1 4 Norte 11 Noroeste 0 -- -- 92
2019-08-22 03:00:00 14.9 4 Noroeste 17 Norte 0 -- -- 94
2019-08-22 02:00:00 15.4 5 Norte 12 Noroeste 0 -- -- 93
2019-08-22 01:00:00 17.2 6 Norte 17 Norte 0 -- -- 92
2019-08-22 00:00:00 17.1 7 Noroeste 19 Noroeste 0 -- -- 95
2019-08-21 23:00:00 17.5 4 Noroeste 9 Norte 0 -- -- 95
2019-08-21 22:00:00 18.4 0 Calma 10 Noroeste 0 -- -- 94
2019-08-21 21:00:00 18.8 3 Noroeste 9 Norte 0 -- -- 94
2019-08-21 20:00:00 19.4 2 Noroeste 20 Sudeste 0.2 -- -- 93
2019-08-21 19:00:00 20.6 3 Sudeste 10 Sudeste 2.4 -- -- 87
2019-08-21 18:00:00 21.4 0 Calma 8 Sur 0 -- -- 77
2019-08-21 17:00:00 21.5 2 Sur 10 Sudeste 0 -- -- 79
2019-08-21 16:00:00 21.4 4 Sur 12 Este 0 -- -- 80
2019-08-21 15:00:00 20.9 8 Sudeste 17 Sudeste 0 -- -- 78
2019-08-21 14:00:00 20.8 6 Sudeste 15 Sudeste 0 -- -- 79
2019-08-21 13:00:00 20.3 2 Sur 15 Sudeste 0 -- -- 84
2019-08-21 12:00:00 20 5 Sudeste 16 Este 0 -- -- 88
2019-08-21 11:00:00 19.5 6 Sudeste 20 Sudeste 0 -- -- 90
2019-08-21 10:00:00 19.2 6 Sudeste 18 Sudeste 0 -- -- 93
2019-08-21 09:00:00 18.9 5 Sudeste 19 Sur 0 -- -- 94
2019-08-21 08:00:00 18.8 8 Sudeste 19 Este 0 -- -- 94
2019-08-21 07:00:00 18.8 5 Sudeste 19 Sudeste 0.6 -- -- 94
2019-08-21 06:00:00 18.9 5 Sudeste 16 Este 1.4 -- -- 93
2019-08-21 05:00:00 19.4 4 Sudeste 15 Este 0 -- -- 88
2019-08-21 04:00:00 20 6 Sudeste 17 Este 0 -- -- 82
2019-08-21 03:00:00 20 7 Sudeste 18 Sudeste 0 -- -- 82
2019-08-21 02:00:00 20 6 Sudeste 17 Sudeste 0 -- -- 81
2019-08-21 01:00:00 19.9 4 Sudeste 19 Sudeste 0 -- -- 81
2019-08-21 00:00:00 20.3 5 Sudeste 16 Sudeste 0 -- -- 77
2019-08-20 23:00:00 20.5 3 Sudeste 15 Sudeste 0 -- -- 74
2019-08-20 22:00:00 20.6 4 Sudeste 19 Este 0 -- -- 71
2019-08-20 21:00:00 20.9 7 Sudeste 22 Sudeste 0 -- -- 67
2019-08-20 20:00:00 21.3 4 Sudeste 25 Sudeste 0 -- -- 66
2019-08-20 19:00:00 21.5 10 Sudeste 30 Este 0 -- -- 66
2019-08-20 18:00:00 21.8 9 Sudeste 31 Sudeste 0 -- -- 65
2019-08-20 17:00:00 21.6 10 Sudeste 31 Sudeste 0 -- -- 69
2019-08-20 16:00:00 22.4 14 Sudeste 36 Sudeste 0 -- -- 75
2019-08-20 15:00:00 23.6 13 Sudeste 28 Sudeste 0 -- -- 77
2019-08-20 14:00:00 24.5 12 Sudeste 29 Este 0 -- -- 76
2019-08-20 13:00:00 25.8 8 Sudeste 21 Sudeste 0 -- -- 69
2019-08-20 12:00:00 25.8 6 Sudeste 24 Sudeste 0 -- -- 69
2019-08-20 11:00:00 24.9 5 Sudeste 19 Este 0 -- -- 72
2019-08-20 10:00:00 23.1 6 Sudeste 15 Sudeste 0 -- -- 81
2019-08-20 09:00:00 22.3 4 Sudeste 11 Sudeste 0 -- -- 85
2019-08-20 08:00:00 21.6 0 Calma 6 Sudeste 0 -- -- 87
2019-08-20 07:00:00 21.6 2 Sudeste 8 Este 0 -- -- 86
2019-08-20 06:00:00 21.7 4 Sudeste 10 Sudeste 0 -- -- 87
2019-08-20 05:00:00 21.6 4 Sudeste 14 Sudeste 0 -- -- 88
2019-08-20 04:00:00 21.6 4 Sudeste 16 Este 0 -- -- 88
2019-08-20 03:00:00 21.7 6 Sudeste 15 Sudeste 0 -- -- 88
2019-08-20 02:00:00 21.9 6 Sudeste 17 Sudeste 0 -- -- 86
2019-08-20 01:00:00 22.1 4 Sudeste 19 Sudeste 0 -- -- 88
2019-08-20 00:00:00 22.5 6 Sudeste 19 Sudeste 0 -- -- 87
2019-08-19 23:00:00 22.7 6 Sudeste 20 Este 0 -- -- 84
2019-08-19 22:00:00 23 7 Sudeste 19 Sudeste 0 -- -- 84
2019-08-19 21:00:00 23.6 6 Sudeste 24 Este 0 -- -- 82
2019-08-19 20:00:00 24.7 9 Sudeste 26 Sudeste 0 -- -- 78
2019-08-19 19:00:00 25.8 11 Sudeste 29 Sudeste 0 -- -- 74
2019-08-19 18:00:00 27.2 12 Sudeste 28 Este 0 -- -- 65
2019-08-19 17:00:00 27.4 15 Sudeste 33 Sudeste 0 -- -- 65
2019-08-19 16:00:00 29.3 12 Sudeste 28 Este 0 -- -- 59
2019-08-19 15:00:00 29.2 6 Sudeste 28 Sudeste 0 -- -- 57
2019-08-19 14:00:00 28.2 11 Sudeste 29 Este 0 -- -- 63
2019-08-19 13:00:00 28.1 5 Sur 23 Este 0 -- -- 62
2019-08-19 12:00:00 26.2 9 Sudeste 24 Sudeste 0 -- -- 69
2019-08-19 11:00:00 24.6 9 Sudeste 19 Sudeste 0 -- -- 77
2019-08-19 10:00:00 23.5 9 Sudeste 19 Este 0 -- -- 81
2019-08-19 09:00:00 20 2 Sur 5 Sudeste 0 -- -- 89
2019-08-19 08:00:00 18.2 3 Norte 5 Norte 0 -- -- 76
2019-08-19 07:00:00 17.3 0 Calma 2 Oeste 0 -- -- 79
2019-08-19 06:00:00 17.1 0 Calma 10 Norte 0 -- -- 79
2019-08-19 05:00:00 17.7 0 Calma 7 Noroeste 0 -- -- 81
2019-08-19 04:00:00 18.7 3 Norte 8 Noroeste 0 -- -- 81
2019-08-19 03:00:00 19.6 4 Norte 8 Noroeste 0 -- -- 79
2019-08-19 02:00:00 20.7 3 Noroeste 7 Norte 0 -- -- 79
2019-08-19 01:00:00 21.9 0 Calma 8 Noroeste 0 -- -- 73
2019-08-19 00:00:00 23.2 0 Calma 5 Noroeste 0 -- -- 71
2019-08-18 23:00:00 25.4 0 Calma 4 Este 0 -- -- 70
2019-08-18 22:00:00 27.2 0 Calma 8 Sudeste 0 -- -- 69
2019-08-18 21:00:00 28.8 3 Sur 10 Sur 0 -- -- 61
2019-08-18 20:00:00 31.6 4 Sur 17 Este 0 -- -- 47
2019-08-18 19:00:00 32.1 7 Sudeste 20 Sudeste 0 -- -- 43
2019-08-18 18:00:00 32.6 10 Sudeste 23 Este 0 -- -- 46
2019-08-18 17:00:00 33.8 9 Sudeste 27 Este 0 -- -- 44
2019-08-18 16:00:00 34.4 13 Sudeste 29 Este 0 -- -- 48
2019-08-18 15:00:00 36.4 6 Sur 20 Este 0 -- -- 38
2019-08-18 14:00:00 36.6 6 Oeste 20 Sudoeste 0 -- -- 23
2019-08-18 13:00:00 34.2 7 Noroeste 18 Oeste 0 -- -- 27
2019-08-18 12:00:00 32.1 6 Noroeste 20 Noroeste 0 -- -- 32
2019-08-18 11:00:00 29.3 7 Noroeste 18 Noroeste 0 -- -- 39
2019-08-18 10:00:00 23.7 4 Noroeste 13 Noroeste 0 -- -- 60
2019-08-18 09:00:00 18.7 6 Noroeste 13 Noroeste 0 -- -- 88
2019-08-18 08:00:00 16.5 3 Noroeste 8 Noroeste 0 -- -- 91
2019-08-18 07:00:00 16.6 4 Noroeste 9 Noroeste 0 -- -- 90
2019-08-18 06:00:00 17.5 2 Noroeste 8 Norte 0 -- -- 89
2019-08-18 05:00:00 18.2 0 Calma 6 Norte 0 -- -- 86
2019-08-18 04:00:00 18.9 3 Noroeste 8 Norte 0 -- -- 86
2019-08-18 03:00:00 19.5 0 Calma 3 Norte 0 -- -- 84
2019-08-18 02:00:00 19.8 0 Calma 3 Noroeste 0 -- -- 86
2019-08-18 01:00:00 20.1 0 Calma 4 Este 0 -- -- 79
2019-08-18 00:00:00 21.1 0 Calma 4 Este 0 -- -- 76
2019-08-17 23:00:00 22.5 0 Calma 4 Sur 0 -- -- 73
2019-08-17 22:00:00 24.3 0 Calma 10 Sudeste 0 -- -- 71
2019-08-17 21:00:00 26 4 Sudeste 15 Sudeste 0 -- -- 70
2019-08-17 20:00:00 28.2 7 Sudeste 17 Sudeste 0 -- -- 64
2019-08-17 19:00:00 29.7 8 Sudeste 21 Sudeste 0 -- -- 58
2019-08-17 18:00:00 31.1 11 Sudeste 24 Este 0 -- -- 53
2019-08-17 17:00:00 32.6 8 Sur 22 Sudeste 0 -- -- 51
2019-08-17 16:00:00 32.3 13 Sudeste 27 Sudeste 0 -- -- 54
2019-08-17 15:00:00 33.3 8 Sudeste 27 Sudeste 0 -- -- 45
2019-08-17 14:00:00 33.1 10 Sudeste 23 Sudeste 0 -- -- 43
2019-08-17 13:00:00 31.8 8 Sudeste 19 Sudeste 0 -- -- 46
2019-08-17 12:00:00 29.9 5 Sudeste 16 Sudeste 0 -- -- 52
2019-08-17 11:00:00 27.2 3 Sur 9 Sudeste 0 -- -- 57
2019-08-17 10:00:00 22.6 3 Noroeste 10 Noroeste 0 -- -- 69
2019-08-17 09:00:00 18.1 3 Noroeste 10 Noroeste 0 -- -- 88
2019-08-17 08:00:00 16.4 3 Norte 9 Norte 0 -- -- 91
2019-08-17 07:00:00 16.5 4 Noroeste 10 Noroeste 0 -- -- 91
2019-08-17 06:00:00 16.6 4 Norte 11 Norte 0 -- -- 90
2019-08-17 05:00:00 17 5 Noroeste 10 Norte 0 -- -- 89
2019-08-17 04:00:00 17.6 3 Noroeste 8 Noroeste 0 -- -- 89
2019-08-17 03:00:00 18 3 Noroeste 7 Noroeste 0 -- -- 88
2019-08-17 02:00:00 18.7 0 Calma 6 Noroeste 0 -- -- 84
2019-08-17 01:00:00 19.9 0 Calma 2 Noroeste 0 -- -- 81
2019-08-17 00:00:00 20.9 0 Calma 3 Este 0 -- -- 83
2019-08-16 23:00:00 22 0 Calma 5 Este 0 -- -- 80
2019-08-16 22:00:00 22.9 2 Oeste 12 Sudeste 0 -- -- 80
2019-08-16 21:00:00 24.3 4 Sudeste 18 Sudeste 0 -- -- 75
2019-08-16 20:00:00 26 7 Sudeste 22 Sudeste 0 -- -- 68
2019-08-16 19:00:00 27.5 10 Sudeste 23 Este 0 -- -- 64
2019-08-16 18:00:00 28.2 9 Sudeste 23 Sudeste 0 -- -- 62
2019-08-16 17:00:00 28.9 11 Sudeste 29 Sudeste 0 -- -- 60
2019-08-16 16:00:00 30.5 13 Sudeste 29 Este 0 -- -- 56
2019-08-16 15:00:00 31.3 8 Sudeste 25 Este 0 -- -- 48
2019-08-16 14:00:00 30.5 9 Sudeste 27 Este 0 -- -- 49
2019-08-16 13:00:00 28.4 9 Este 24 Este 0 -- -- 53
2019-08-16 12:00:00 27.1 5 Sur 18 Este 0 -- -- 58
2019-08-16 11:00:00 24.6 6 Sudeste 15 Sudeste 0 -- -- 69
2019-08-16 10:00:00 21.9 3 Sudeste 10 Sudeste 0 -- -- 82
2019-08-16 09:00:00 17.8 0 Calma 9 Noroeste 0 -- -- 81
2019-08-16 08:00:00 16 3 Noroeste 9 Norte 0 -- -- 83
2019-08-16 07:00:00 15.4 3 Norte 6 Norte 0 -- -- 87
2019-08-16 06:00:00 15.6 0 Calma 5 Noroeste 0 -- -- 87
2019-08-16 05:00:00 16.2 2 Noroeste 5 Noroeste 0 -- -- 86
2019-08-16 04:00:00 16.9 3 Noroeste 5 Noroeste 0 -- -- 86
2019-08-16 03:00:00 17.6 2 Noroeste 6 Noroeste 0 -- -- 85
2019-08-16 02:00:00 18.5 0 Calma 2 Norte 0 -- -- 84
2019-08-16 01:00:00 19.4 0 Calma 3 Sudoeste 0 -- -- 81
2019-08-16 00:00:00 20.6 0 Calma 2 Sudeste 0 -- -- 78
2019-08-15 23:00:00 21.9 0 Calma 6 Sudeste 0 -- -- 77
2019-08-15 22:00:00 22.7 2 Sudeste 12 Este 0 -- -- 78
2019-08-15 21:00:00 23.9 4 Sudeste 22 Este 0 -- -- 73
2019-08-15 20:00:00 25.8 8 Sudeste 22 Sudeste 0 -- -- 65
2019-08-15 19:00:00 27.5 7 Sudeste 26 Este 0 -- -- 56
2019-08-15 18:00:00 28.5 10 Sudeste 27 Sudeste 0 -- -- 59
2019-08-15 17:00:00 29.9 10 Sudeste 32 Este 0 -- -- 58
2019-08-15 16:00:00 30.5 16 Sudeste 31 Sudeste 0 -- -- 56
2019-08-15 15:00:00 31.5 12 Sudeste 27 Sudeste 0 -- -- 47
2019-08-15 14:00:00 31.1 9 Sudeste 26 Este 0 -- -- 44
2019-08-15 13:00:00 30.3 6 Sur 22 Sudeste 0 -- -- 42
2019-08-15 12:00:00 28.8 5 Sur 19 Este 0 -- -- 47
2019-08-15 11:00:00 27.4 4 Sur 17 Este 0 -- -- 51
2019-08-15 10:00:00 22.9 3 Sur 8 Norte 0 -- -- 58
2019-08-15 09:00:00 18.1 4 Norte 11 Noroeste 0 -- -- 68
2019-08-15 08:00:00 15.4 4 Norte 11 Norte 0 -- -- 75
2019-08-15 07:00:00 15.4 3 Noroeste 12 Norte 0 -- -- 75
2019-08-15 06:00:00 15.7 4 Norte 10 Norte 0 -- -- 75
2019-08-15 05:00:00 16.2 4 Noroeste 10 Noroeste 0 -- -- 74
2019-08-15 04:00:00 16.6 4 Norte 10 Noroeste 0 -- -- 71
2019-08-15 03:00:00 17.2 3 Norte 11 Norte 0 -- -- 71
2019-08-15 02:00:00 17.8 4 Norte 9 Noroeste 0 -- -- 72
2019-08-15 01:00:00 18.7 3 Norte 8 Norte 0 -- -- 70
2019-08-15 00:00:00 19.7 3 Norte 8 Noroeste 0 -- -- 66
2019-08-14 23:00:00 21.5 2 Noroeste 5 Noroeste 0 -- -- 66
2019-08-14 22:00:00 23.3 0 Calma 6 Sudeste 0 -- -- 65
2019-08-14 21:00:00 24.9 0 Calma 16 Sudeste 0 -- -- 61
2019-08-14 20:00:00 26.6 8 Sudeste 22 Sudeste 0 -- -- 57
2019-08-14 19:00:00 28.3 9 Sudeste 22 Sudeste 0 -- -- 53
2019-08-14 18:00:00 29.4 8 Sudeste 27 Sudeste 0 -- -- 50
2019-08-14 17:00:00 30.5 10 Sudeste 29 Sudeste 0 -- -- 49
2019-08-14 16:00:00 32.1 9 Sudeste 27 Este 0 -- -- 46
2019-08-14 15:00:00 32.9 7 Sudoeste 24 Noroeste 0 -- -- 28
2019-08-14 14:00:00 31.9 7 Noroeste 23 Oeste 0 -- -- 25
2019-08-14 13:00:00 30.1 6 Sur 16 Sur 0 -- -- 43
2019-08-14 12:00:00 27.3 4 Sudeste 12 Sudeste 0 -- -- 55
2019-08-14 11:00:00 24.5 3 Nordeste 11 Noroeste 0 -- -- 64
2019-08-14 10:00:00 22 5 Noroeste 18 Noroeste 0 -- -- 74
2019-08-14 09:00:00 18.5 6 Norte 14 Norte 0 -- -- 88
2019-08-14 08:00:00 16.1 6 Noroeste 13 Noroeste 0 -- -- 91
2019-08-14 07:00:00 16.2 4 Noroeste 10 Noroeste 0 -- -- 90
2019-08-14 06:00:00 16.6 3 Noroeste 9 Norte 0 -- -- 89
2019-08-14 05:00:00 17.4 3 Noroeste 8 Oeste 0 -- -- 88
2019-08-14 04:00:00 18.2 2 Noroeste 5 Norte 0 -- -- 87
2019-08-14 03:00:00 19.4 0 Calma 3 Sudoeste 0 -- -- 83
2019-08-14 02:00:00 20.2 0 Calma 3 Norte 0 -- -- 83
2019-08-14 01:00:00 20.4 0 Calma 3 Sur 0 -- -- 82
2019-08-14 00:00:00 20.4 0 Calma 8 Sudeste 0 -- -- 82
2019-08-13 23:00:00 20.6 3 Sur 12 Este 0 -- -- 84
2019-08-13 22:00:00 20.8 5 Sudeste 16 Este 0 -- -- 82
2019-08-13 21:00:00 21.5 8 Sudeste 19 Este 0 -- -- 80
2019-08-13 20:00:00 22.6 8 Sudeste 24 Sudeste 0 -- -- 74
2019-08-13 19:00:00 25.1 10 Sudeste 24 Sudeste 0 -- -- 63
2019-08-13 18:00:00 25.4 5 Sur 16 Sur 0 -- -- 60
2019-08-13 17:00:00 25.2 6 Sudeste 21 Sudeste 0 -- -- 62
2019-08-13 16:00:00 24.7 8 Sudeste 22 Este 0 -- -- 62
2019-08-13 15:00:00 22.7 7 Sudeste 23 Este 0 -- -- 68
2019-08-13 14:00:00 22 4 Sur 17 Este 0 -- -- 69
2019-08-13 13:00:00 22.3 8 Sudeste 22 Sudeste 0 -- -- 66
2019-08-13 12:00:00 21.9 8 Sudeste 26 Sudeste 0 -- -- 62
2019-08-13 11:00:00 22 9 Sudeste 26 Este 0 -- -- 60
2019-08-13 10:00:00 21.2 14 Sudeste 24 Sudeste 0 -- -- 60
2019-08-13 09:00:00 19.9 3 Sudeste 13 Sudeste 0 -- -- 60
2019-08-13 08:00:00 19.3 0 Calma 7 Sudeste 0 -- -- 61
2019-08-13 07:00:00 18.9 3 Este 9 Este 0 -- -- 65
2019-08-13 06:00:00 19.4 4 Sudeste 12 Sudeste 0 -- -- 63
2019-08-13 05:00:00 19.6 2 Sur 7 Sur 0 -- -- 76
2019-08-13 04:00:00 19.6 0 Calma 4 Sudeste 0 -- -- 85
2019-08-13 03:00:00 19.9 0 Calma 8 Sudeste 0 -- -- 85
2019-08-13 02:00:00 20.1 0 Calma 10 Sudeste 0 -- -- 86
2019-08-13 01:00:00 20.6 3 Sudeste 13 Sudeste 0 -- -- 85
2019-08-13 00:00:00 20.9 2 Sur 10 Sudeste 0 -- -- 83
2019-08-12 23:00:00 21.3 5 Sudeste 15 Sudeste 0 -- -- 83
2019-08-12 22:00:00 22 6 Sudeste 20 Sudeste 0 -- -- 82
2019-08-12 21:00:00 22.6 7 Sudeste 22 Sudeste 0 -- -- 78
2019-08-12 20:00:00 23.5 6 Sudeste 24 Sudeste 0 -- -- 73
2019-08-12 19:00:00 24.7 8 Sudeste 27 Sudeste 0 -- -- 66
2019-08-12 18:00:00 26.1 10 Sudeste 35 Sudeste 0 -- -- 61
2019-08-12 17:00:00 26.7 9 Sudeste 32 Este 0 -- -- 57
2019-08-12 16:00:00 27.3 12 Sudeste 36 Sudeste 0 -- -- 50
2019-08-12 15:00:00 28.6 10 Sur 28 Este 0 -- -- 44
2019-08-12 14:00:00 28.9 8 Sur 27 Sudeste 0 -- -- 43
2019-08-12 13:00:00 26.2 9 Sudeste 24 Sudeste 0 -- -- 53
2019-08-12 12:00:00 26.8 8 Sudeste 22 Este 0 -- -- 53
2019-08-12 11:00:00 25.8 6 Sur 13 Sudeste 0 -- -- 55
2019-08-12 10:00:00 22.5 6 Norte 21 Noroeste 0 -- -- 37
2019-08-12 09:00:00 19.4 9 Norte 19 Noroeste 0 -- -- 38
2019-08-12 08:00:00 16.9 6 Noroeste 14 Noroeste 0 -- -- 45
2019-08-12 07:00:00 17.4 4 Noroeste 16 Noroeste 0 -- -- 43
2019-08-12 06:00:00 17.7 6 Noroeste 13 Noroeste 0 -- -- 42
2019-08-12 05:00:00 18.4 4 Norte 9 Norte 0 -- -- 42
2019-08-12 04:00:00 18 3 Noroeste 10 Noroeste 0 -- -- 44
2019-08-12 03:00:00 19.2 4 Noroeste 11 Noroeste 0 -- -- 43
2019-08-12 02:00:00 20.2 4 Noroeste 12 Noroeste 0 -- -- 47
2019-08-12 01:00:00 20.1 7 Noroeste 14 Noroeste 0 -- -- 70
2019-08-12 00:00:00 22 4 Noroeste 9 Norte 0 -- -- 69
2019-08-11 23:00:00 25 0 Calma 5 Sudeste 0 -- -- 72
2019-08-11 22:00:00 26.9 0 Calma 6 Sudeste 0 -- -- 66
2019-08-11 21:00:00 29.1 2 Sur 22 Sudeste 0 -- -- 59
2019-08-11 20:00:00 32 5 Oeste 20 Noroeste 0 -- -- 21
2019-08-11 19:00:00 32.6 7 Oeste 27 Noroeste 0 -- -- 22
2019-08-11 18:00:00 33.1 8 Oeste 28 Oeste 0 -- -- 22
2019-08-11 17:00:00 33.4 11 Noroeste 33 Noroeste 0 -- -- 21
2019-08-11 16:00:00 34.4 13 Noroeste 31 Noroeste 0 -- -- 20
2019-08-11 15:00:00 34.4 13 Noroeste 45 Oeste 0 -- -- 20
2019-08-11 14:00:00 33.6 10 Oeste 30 Noroeste 0 -- -- 22
2019-08-11 13:00:00 31.7 9 Noroeste 27 Oeste 0 -- -- 36
2019-08-11 12:00:00 29.9 8 Noroeste 22 Norte 0 -- -- 41
2019-08-11 11:00:00 27.5 6 Noroeste 15 Oeste 0 -- -- 48
2019-08-11 10:00:00 24.7 3 Sudeste 8 Sudeste 0 -- -- 76
2019-08-11 09:00:00 23.5 3 Sur 9 Sudeste 0 -- -- 85
2019-08-11 08:00:00 22.7 0 Calma 6 Sudeste 0 -- -- 88
2019-08-11 07:00:00 22.6 0 Calma 7 Sudeste 0 -- -- 87
2019-08-11 06:00:00 22.5 0 Calma 4 Sur 0 -- -- 88
2019-08-11 05:00:00 22.5 0 Calma 6 Sudeste 0 -- -- 88
2019-08-11 04:00:00 21.8 2 Sur 6 Sudeste 0 -- -- 90
2019-08-11 03:00:00 21.1 0 Calma 2 Sudoeste 0 -- -- 84
2019-08-11 02:00:00 21.8 0 Calma 2 Noroeste 0 -- -- 83
2019-08-11 01:00:00 22.7 0 Calma 3 Sudeste 0 -- -- 81
2019-08-11 00:00:00 23.8 0 Calma 4 Este 0 -- -- 80
2019-08-10 23:00:00 24.7 0 Calma 8 Sudeste 0 -- -- 79
2019-08-10 22:00:00 25.2 5 Sudeste 15 Sudeste 0 -- -- 80
2019-08-10 21:00:00 26.4 6 Sudeste 21 Sudeste 0 -- -- 70
2019-08-10 20:00:00 28.2 9 Sudeste 22 Sudeste 0 -- -- 63
2019-08-10 19:00:00 29.7 7 Sudeste 27 Este 0 -- -- 58
2019-08-10 18:00:00 30.6 11 Sudeste 27 Sudeste 0 -- -- 53
2019-08-10 17:00:00 31.6 13 Sudeste 26 Este 0 -- -- 50
2019-08-10 16:00:00 32.1 9 Sudeste 28 Sudeste 0 -- -- 47
2019-08-10 15:00:00 33.1 8 Sudeste 30 Sudeste 0 -- -- 47
2019-08-10 14:00:00 33.1 15 Sudeste 32 Sudeste 0 -- -- 46
2019-08-10 13:00:00 32.8 7 Norte 19 Oeste 0 -- -- 38
2019-08-10 12:00:00 31.7 6 Oeste 19 Oeste 0 -- -- 42
2019-08-10 11:00:00 29.8 8 Oeste 18 Noroeste 0 -- -- 46
2019-08-10 10:00:00 26.7 6 Norte 21 Noroeste 0 -- -- 54
2019-08-10 09:00:00 23.8 10 Noroeste 24 Oeste 0 -- -- 60
2019-08-10 08:00:00 21.7 8 Noroeste 20 Noroeste 0 -- -- 63
2019-08-10 07:00:00 22 8 Noroeste 21 Noroeste 0 -- -- 60
2019-08-10 06:00:00 22.5 8 Noroeste 21 Noroeste 0 -- -- 56
2019-08-10 05:00:00 22.5 8 Noroeste 18 Noroeste 0 -- -- 54
2019-08-10 04:00:00 22.5 7 Noroeste 18 Noroeste 0 -- -- 53
2019-08-10 03:00:00 22.5 8 Noroeste 16 Noroeste 0 -- -- 52
2019-08-10 02:00:00 22.5 5 Norte 13 Noroeste 0 -- -- 51
2019-08-10 01:00:00 23.4 6 Noroeste 12 Norte 0 -- -- 47
2019-08-10 00:00:00 24.8 4 Noroeste 10 Noroeste 0 -- -- 43
2019-08-09 23:00:00 26.8 3 Norte 5 Noroeste 0 -- -- 39
2019-08-09 22:00:00 29.9 0 Calma 10 Oeste 0 -- -- 33
2019-08-09 21:00:00 33.1 4 Oeste 27 Sudoeste 0 -- -- 29
2019-08-09 20:00:00 35.1 12 Noroeste 36 Noroeste 0 -- -- 27
2019-08-09 19:00:00 36.4 10 Oeste 34 Oeste 0 -- -- 25
2019-08-09 18:00:00 36.8 13 Noroeste 32 Oeste 0 -- -- 25
2019-08-09 17:00:00 37.1 13 Noroeste 39 Noroeste 0 -- -- 26
2019-08-09 16:00:00 36.8 11 Noroeste 42 Oeste 0 -- -- 26
2019-08-09 15:00:00 36.1 13 Noroeste 32 Noroeste 0 -- -- 27
2019-08-09 14:00:00 35.8 9 Oeste 35 Noroeste 0 -- -- 26
2019-08-09 13:00:00 33.7 12 Noroeste 33 Noroeste 0 -- -- 31
2019-08-09 12:00:00 31.7 12 Noroeste 27 Norte 0 -- -- 35
2019-08-09 11:00:00 29.3 12 Noroeste 28 Noroeste 0 -- -- 36
2019-08-09 10:00:00 26.4 11 Noroeste 27 Noroeste 0 -- -- 34
2019-08-09 09:00:00 23.9 12 Noroeste 26 Norte 0 -- -- 37
2019-08-09 08:00:00 21.8 9 Noroeste 16 Noroeste 0 -- -- 44
2019-08-09 07:00:00 21.4 6 Noroeste 15 Noroeste 0 -- -- 48
2019-08-09 06:00:00 21.2 8 Noroeste 15 Oeste 0 -- -- 50
2019-08-09 05:00:00 20 6 Norte 14 Norte 0 -- -- 57
2019-08-09 04:00:00 20.7 8 Norte 15 Norte 0 -- -- 58
2019-08-09 03:00:00 21 8 Norte 14 Noroeste 0 -- -- 60
2019-08-09 02:00:00 21.2 6 Noroeste 15 Noroeste 0 -- -- 61
2019-08-09 01:00:00 22 4 Norte 14 Noroeste 0 -- -- 59
2019-08-09 00:00:00 23.2 3 Noroeste 11 Norte 0 -- -- 56
2019-08-08 23:00:00 24.5 3 Noroeste 8 Norte 0 -- -- 52
2019-08-08 22:00:00 26.9 0 Calma 6 Sudoeste 0 -- -- 46
2019-08-08 21:00:00 29.8 3 Este 15 Sudeste 0 -- -- 42
2019-08-08 20:00:00 32.8 7 Sudeste 23 Sudeste 0 -- -- 37
2019-08-08 19:00:00 36.3 6 Noroeste 23 Noroeste 0 -- -- 28
2019-08-08 18:00:00 36.9 8 Oeste 27 Oeste 0 -- -- 27
2019-08-08 17:00:00 36.7 9 Oeste 24 Noroeste 0 -- -- 27
2019-08-08 16:00:00 36.3 8 Oeste 29 Noroeste 0 -- -- 27
2019-08-08 15:00:00 35.4 8 Noroeste 30 Noroeste 0 -- -- 28
2019-08-08 14:00:00 34.5 8 Noroeste 28 Noroeste 0 -- -- 29
2019-08-08 13:00:00 32.6 11 Noroeste 29 Noroeste 0 -- -- 29
2019-08-08 12:00:00 31.6 11 Oeste 27 Oeste 0 -- -- 28
2019-08-08 11:00:00 29.5 6 Oeste 22 Noroeste 0 -- -- 35
2019-08-08 10:00:00 26.1 10 Noroeste 23 Norte 0 -- -- 44
2019-08-08 09:00:00 22.6 12 Norte 22 Noroeste 0 -- -- 51
2019-08-08 08:00:00 20.7 6 Noroeste 19 Norte 0 -- -- 57
2019-08-08 07:00:00 20.5 6 Noroeste 15 Noroeste 0 -- -- 59
2019-08-08 06:00:00 19.3 5 Noroeste 13 Norte 0 -- -- 69
2019-08-08 05:00:00 19.2 4 Norte 10 Noroeste 0 -- -- 73
2019-08-08 04:00:00 20 6 Noroeste 11 Noroeste 0 -- -- 80
2019-08-08 03:00:00 21.1 5 Norte 9 Noroeste 0 -- -- 81
2019-08-08 02:00:00 22.2 5 Norte 10 Noroeste 0 -- -- 78
2019-08-08 01:00:00 23.2 2 Norte 6 Norte 0 -- -- 82
2019-08-08 00:00:00 24.3 0 Calma 4 Sudeste 0 -- -- 81
2019-08-07 23:00:00 24.6 3 Sudeste 9 Sudeste 0 -- -- 80
2019-08-07 22:00:00 25.5 3 Sur 8 Sudeste 0 -- -- 74
2019-08-07 21:00:00 27.4 4 Sur 10 Sudeste 0 -- -- 68
2019-08-07 20:00:00 30.9 4 Sur 19 Oeste 0 -- -- 55
2019-08-07 19:00:00 32.9 4 Sur 23 Noroeste 0 -- -- 38
2019-08-07 18:00:00 34.4 7 Noroeste 30 Noroeste 0 -- -- 20
2019-08-07 17:00:00 36.4 9 Noroeste 27 Oeste 0 -- -- 20
2019-08-07 16:00:00 35.1 10 Oeste 33 Sudoeste 0 -- -- 21
2019-08-07 15:00:00 35.5 12 Noroeste 36 Oeste 0 -- -- 23
2019-08-07 14:00:00 32.4 8 Oeste 27 Noroeste 0 -- -- 30
2019-08-07 13:00:00 30.9 10 Noroeste 31 Oeste 0 -- -- 31
2019-08-07 12:00:00 29.2 15 Noroeste 37 Noroeste 0 -- -- 34
2019-08-07 11:00:00 26.5 11 Noroeste 32 Noroeste 0 -- -- 35
2019-08-07 10:00:00 24.8 14 Noroeste 31 Noroeste 0 -- -- 34
2019-08-07 09:00:00 22.9 16 Norte 32 Norte 0 -- -- 40
2019-08-07 08:00:00 22.3 14 Norte 34 Noroeste 0 -- -- 49
2019-08-07 07:00:00 22.2 11 Norte 29 Norte 0 -- -- 60
2019-08-07 06:00:00 22.6 9 Noroeste 20 Norte 0 -- -- 46
2019-08-07 05:00:00 23 11 Noroeste 21 Noroeste 0 -- -- 42
2019-08-07 04:00:00 20.1 9 Noroeste 19 Noroeste 0 -- -- 68
2019-08-07 03:00:00 19.5 7 Noroeste 15 Noroeste 0 -- -- 87
2019-08-07 02:00:00 20.1 4 Norte 7 Noroeste 0 -- -- 85
2019-08-07 01:00:00 21.4 3 Noroeste 6 Noroeste 0 -- -- 79
2019-08-07 00:00:00 23.2 0 Calma 4 Sudeste 0 -- -- 81
2019-08-06 23:00:00 24.4 0 Calma 5 Sudeste 0 -- -- 77
2019-08-06 22:00:00 25.8 0 Calma 9 Sudeste 0 -- -- 73
2019-08-06 21:00:00 27.7 4 Sudeste 10 Sudeste 0 -- -- 69
2019-08-06 20:00:00 29.8 4 Sur 9 Sudeste 0 -- -- 59
2019-08-06 19:00:00 30.8 4 Sur 17 Sur 0 -- -- 56
2019-08-06 18:00:00 33 10 Sudeste 25 Este 0 -- -- 49
2019-08-06 17:00:00 33.8 13 Sudeste 28 Este 0 -- -- 49
2019-08-06 16:00:00 34.1 8 Sudeste 29 Sudeste 0 -- -- 48
2019-08-06 15:00:00 33.8 16 Sudeste 32 Sudeste 0 -- -- 49
2019-08-06 14:00:00 34 11 Sudeste 22 Sudeste 0 -- -- 45
2019-08-06 13:00:00 33.9 5 Norte 15 Noroeste 0 -- -- 44
2019-08-06 12:00:00 31.8 5 Oeste 22 Noroeste 0 -- -- 41
2019-08-06 11:00:00 28.7 8 Noroeste 23 Noroeste 0 -- -- 57
2019-08-06 10:00:00 25 10 Noroeste 29 Noroeste 0 -- -- 74
2019-08-06 09:00:00 22.2 10 Noroeste 26 Noroeste 0 -- -- 85
2019-08-06 08:00:00 20.8 9 Norte 22 Norte 0 -- -- 90
2019-08-06 07:00:00 21.5 5 Norte 12 Norte 0 -- -- 87
2019-08-06 06:00:00 22.3 0 Calma 5 Oeste 0 -- -- 85
2019-08-06 05:00:00 23 0 Calma 4 Sur 0 -- -- 85
2019-08-06 04:00:00 23.2 0 Calma 4 Sur 0 -- -- 85
2019-08-06 03:00:00 23.1 0 Calma 6 Sudeste 0 -- -- 84
2019-08-06 02:00:00 23 0 Calma 9 Nordeste 0 -- -- 85
2019-08-06 01:00:00 23.1 0 Calma 8 Este 0 -- -- 82
2019-08-06 00:00:00 23.3 3 Sudeste 10 Sudeste 0 -- -- 81
2019-08-05 23:00:00 23.7 0 Calma 9 Sudeste 0 -- -- 81
2019-08-05 22:00:00 24.2 3 Sudeste 9 Sudeste 0 -- -- 78
2019-08-05 21:00:00 25.5 4 Sudeste 17 Sudeste 0 -- -- 71
2019-08-05 20:00:00 27.5 6 Sudeste 19 Este 0 -- -- 67
2019-08-05 19:00:00 29.4 7 Sudeste 24 Sudeste 0 -- -- 60
2019-08-05 18:00:00 30.8 11 Sudeste 25 Sudeste 0 -- -- 55
2019-08-05 17:00:00 32 9 Sudeste 26 Sudeste 0 -- -- 51
2019-08-05 16:00:00 32.8 11 Sudeste 25 Este 0 -- -- 47
2019-08-05 15:00:00 32.1 8 Sudeste 19 Sudeste 0 -- -- 47
2019-08-05 14:00:00 31 7 Sudeste 18 Este 0 -- -- 50
2019-08-05 13:00:00 29.5 7 Sudeste 20 Este 0 -- -- 53
2019-08-05 12:00:00 27.5 10 Sudeste 20 Sudeste 0 -- -- 58
2019-08-05 11:00:00 26.8 9 Sudeste 21 Sudeste 0 -- -- 58
2019-08-05 10:00:00 23.7 3 Sur 10 Sudeste 0 -- -- 63
2019-08-05 09:00:00 18.9 0 Calma 7 Noroeste 0 -- -- 74
2019-08-05 08:00:00 17.1 4 Noroeste 8 Noroeste 0 -- -- 79
2019-08-05 07:00:00 16.9 4 Noroeste 11 Norte 0 -- -- 78
2019-08-05 06:00:00 16.9 3 Norte 8 Noroeste 0 -- -- 79
2019-08-05 05:00:00 17.5 4 Noroeste 8 Noroeste 0 -- -- 78
2019-08-05 04:00:00 18.1 4 Noroeste 9 Noroeste 0 -- -- 79
2019-08-05 03:00:00 18.7 2 Noroeste 6 Noroeste 0 -- -- 76
2019-08-05 02:00:00 19.6 2 Noroeste 5 Oeste 0 -- -- 75
2019-08-05 01:00:00 20.6 0 Calma 3 Sudeste 0 -- -- 75
2019-08-05 00:00:00 21.6 0 Calma 4 Sur 0 -- -- 75
2019-08-04 23:00:00 23.1 0 Calma 5 Sudeste 0 -- -- 73
2019-08-04 22:00:00 24.4 0 Calma 15 Este 0 -- -- 70
2019-08-04 21:00:00 26 4 Sudeste 18 Sudeste 0 -- -- 63
2019-08-04 20:00:00 28.5 8 Sudeste 24 Sudeste 0 -- -- 59
2019-08-04 19:00:00 30.1 7 Sudeste 22 Este 0 -- -- 54
2019-08-04 18:00:00 31 11 Sudeste 28 Sudeste 0 -- -- 53
2019-08-04 17:00:00 31.9 10 Sudeste 25 Este 0 -- -- 46
2019-08-04 16:00:00 32.4 13 Sudeste 27 Sudeste 0 -- -- 49
2019-08-04 15:00:00 32.3 12 Sudeste 26 Este 0 -- -- 47
2019-08-04 14:00:00 32.2 12 Sudeste 26 Sudeste 0 -- -- 43
2019-08-04 13:00:00 30.7 8 Sudeste 23 Este 0 -- -- 42
2019-08-04 12:00:00 29.2 9 Sudeste 19 Sudeste 0 -- -- 46
2019-08-04 11:00:00 27.7 9 Sudeste 15 Sudeste 0 -- -- 46
2019-08-04 10:00:00 23.2 0 Calma 5 Noroeste 0 -- -- 61
2019-08-04 09:00:00 19.1 2 Norte 10 Norte 0 -- -- 71
2019-08-04 08:00:00 16.8 5 Noroeste 12 Noroeste 0 -- -- 75
2019-08-04 07:00:00 16.5 3 Noroeste 10 Norte 0 -- -- 75
2019-08-04 06:00:00 16.8 2 Noroeste 12 Norte 0 -- -- 72
2019-08-04 05:00:00 17.2 4 Norte 12 Norte 0 -- -- 71
2019-08-04 04:00:00 17.6 4 Noroeste 10 Noroeste 0 -- -- 70
2019-08-04 03:00:00 17.9 3 Noroeste 9 Noroeste 0 -- -- 71
2019-08-04 02:00:00 18.5 0 Calma 6 Noroeste 0 -- -- 69
2019-08-04 01:00:00 19.3 3 Noroeste 6 Noroeste 0 -- -- 68
2019-08-04 00:00:00 20.8 0 Calma 2 Sur 0 -- -- 68
2019-08-03 23:00:00 22.3 0 Calma 9 Sudeste 0 -- -- 64
2019-08-03 22:00:00 23.7 0 Calma 9 Este 0 -- -- 59
2019-08-03 21:00:00 25.5 5 Sudeste 14 Sudeste 0 -- -- 59
2019-08-03 20:00:00 27.5 7 Sudeste 19 Este 0 -- -- 55
2019-08-03 19:00:00 28.9 8 Sudeste 22 Este 0 -- -- 54
2019-08-03 18:00:00 29.7 10 Sudeste 23 Sudeste 0 -- -- 54
2019-08-03 17:00:00 30.4 12 Sudeste 26 Sudeste 0 -- -- 53
2019-08-03 16:00:00 31.7 11 Sudeste 24 Sudeste 0 -- -- 49
2019-08-03 15:00:00 31.3 6 Sudeste 26 Este 0 -- -- 48
2019-08-03 14:00:00 31 11 Sudeste 23 Sudeste 0 -- -- 48
2019-08-03 13:00:00 29 9 Sudeste 23 Sudeste 0 -- -- 50
2019-08-03 12:00:00 28.1 5 Sudeste 19 Sudeste 0 -- -- 52
2019-08-03 11:00:00 26.6 6 Sudeste 17 Este 0 -- -- 55
2019-08-03 10:00:00 22.7 3 Sur 7 Sur 0 -- -- 60
2019-08-03 09:00:00 17.5 0 Calma 6 Noroeste 0 -- -- 72
2019-08-03 08:00:00 15.4 3 Norte 9 Norte 0 -- -- 79
2019-08-03 07:00:00 15.2 3 Norte 12 Noroeste 0 -- -- 82
2019-08-03 06:00:00 15.6 3 Norte 8 Noroeste 0 -- -- 83
2019-08-03 05:00:00 16.3 4 Norte 9 Noroeste 0 -- -- 82
2019-08-03 04:00:00 16.9 3 Noroeste 9 Norte 0 -- -- 81
2019-08-03 03:00:00 17.5 3 Noroeste 6 Noroeste 0 -- -- 80
2019-08-03 02:00:00 17.6 0 Calma 3 Noroeste 0 -- -- 77
2019-08-03 01:00:00 18.3 0 Calma 3 Noroeste 0 -- -- 74
2019-08-03 00:00:00 19.5 0 Calma 0 Calma 0 -- -- 71
2019-08-02 23:00:00 20.8 0 Calma 2 Sur 0 -- -- 69
2019-08-02 22:00:00 22.9 0 Calma 9 Sudeste 0 -- -- 64
2019-08-02 21:00:00 24.4 6 Sudeste 19 Sudeste 0 -- -- 62
2019-08-02 20:00:00 26.4 11 Sudeste 24 Sudeste 0 -- -- 54
2019-08-02 19:00:00 27.8 8 Sudeste 24 Este 0 -- -- 47
2019-08-02 18:00:00 28.8 11 Sudeste 27 Sudeste 0 -- -- 46
2019-08-02 17:00:00 29.8 9 Sudeste 28 Sudeste 0 -- -- 42
2019-08-02 16:00:00 30 11 Sudeste 31 Sudeste 0 -- -- 40
2019-08-02 15:00:00 30.3 8 Sur 30 Sudeste 0 -- -- 43
2019-08-02 14:00:00 29.8 9 Sudeste 25 Este 0 -- -- 52
2019-08-02 13:00:00 28.5 5 Sur 21 Sudeste 0 -- -- 55
2019-08-02 12:00:00 27.2 5 Sur 21 Sudeste 0 -- -- 61
2019-08-02 11:00:00 25.6 5 Sudeste 12 Sudeste 0 -- -- 66
2019-08-02 10:00:00 22.3 4 Sur 9 Sur 0 -- -- 72
2019-08-02 09:00:00 17.5 0 Calma 5 Norte 0 -- -- 82
2019-08-02 08:00:00 15.8 3 Norte 9 Noroeste 0 -- -- 85
2019-08-02 07:00:00 15.7 3 Noroeste 9 Noroeste 0 -- -- 86
2019-08-02 06:00:00 16.1 4 Norte 9 Norte 0 -- -- 88
2019-08-02 05:00:00 16.6 3 Norte 8 Noroeste 0 -- -- 87
2019-08-02 04:00:00 17.3 2 Noroeste 6 Norte 0 -- -- 87
2019-08-02 03:00:00 18 2 Noroeste 8 Norte 0 -- -- 85
2019-08-02 02:00:00 18.7 0 Calma 4 Norte 0 -- -- 83
2019-08-02 01:00:00 19.5 0 Calma 4 Norte 0 -- -- 80
2019-08-02 00:00:00 20.2 0 Calma 2 Sudoeste 0 -- -- 78
2019-08-01 23:00:00 21.5 0 Calma 6 Sudeste 0 -- -- 75
2019-08-01 22:00:00 22.7 3 Sudeste 13 Sudeste 0 -- -- 73
2019-08-01 21:00:00 24.3 4 Sudeste 19 Sudeste 0 -- -- 69
2019-08-01 20:00:00 26.3 8 Sudeste 18 Sudeste 0 -- -- 64
2019-08-01 19:00:00 27.2 5 Sur 18 Sudeste 0 -- -- 61
2019-08-01 18:00:00 27.6 11 Sudeste 23 Sudeste 0 -- -- 61
2019-08-01 17:00:00 28 8 Sudeste 23 Sudeste 0 -- -- 61
2019-08-01 16:00:00 28 14 Sudeste 28 Este 0 -- -- 60
2019-08-01 15:00:00 29.6 8 Sur 26 Sudeste 0 -- -- 51
2019-08-01 14:00:00 29 11 Sudeste 30 Sudeste 0 -- -- 52
2019-08-01 13:00:00 27.6 7 Sudeste 20 Sudeste 0 -- -- 55
2019-08-01 12:00:00 26.4 5 Sur 12 Sudeste 0 -- -- 60
2019-08-01 11:00:00 23.9 4 Sur 16 Sudeste 0 -- -- 68
2019-08-01 10:00:00 21.4 4 Sur 11 Sur 0 -- -- 80
2019-08-01 09:00:00 19 0 Calma 7 Norte 0 -- -- 90
2019-08-01 08:00:00 17.9 0 Calma 4 Norte 0 -- -- 91
2019-08-01 07:00:00 18.4 0 Calma 4 Sudeste 0 -- -- 89
2019-08-01 06:00:00 19 0 Calma 7 Este 0 -- -- 91
2019-08-01 05:00:00 18.9 3 Sudeste 7 Este 0 -- -- 92
2019-08-01 04:00:00 18.6 2 Sudeste 12 Sur 0 -- -- 94
2019-08-01 03:00:00 17.3 0 Calma 3 Sur 0 -- -- 89
2019-08-01 02:00:00 18.1 0 Calma 6 Sudeste 0 -- -- 88
2019-08-01 01:00:00 18.8 2 Sur 6 Sudeste 0 -- -- 87
2019-08-01 00:00:00 19.3 2 Sudeste 5 Este 0 -- -- 86
2019-07-31 23:00:00 19.9 2 Sudeste 7 Sudeste 0 -- -- 83
2019-07-31 22:00:00 20.7 3 Sudeste 21 Sudeste 0 -- -- 78
2019-07-31 21:00:00 21.9 6 Sudeste 21 Sudeste 0 -- -- 72
2019-07-31 20:00:00 23.1 9 Sudeste 24 Sudeste 0 -- -- 69
2019-07-31 19:00:00 23.8 9 Sudeste 26 Este 0 -- -- 65
2019-07-31 18:00:00 23.7 8 Sudeste 27 Este 0 -- -- 69
2019-07-31 17:00:00 21.8 6 Sudeste 19 Sudeste 0 -- -- 80
2019-07-31 16:00:00 21.7 6 Sudeste 16 Este 0 -- -- 83
2019-07-31 15:00:00 20.9 5 Sudeste 21 Sudeste 0 -- -- 89
2019-07-31 14:00:00 21.4 9 Sudeste 30 Sudeste 0 -- -- 86
2019-07-31 13:00:00 24.1 9 Sudeste 32 Este 0 -- -- 70
2019-07-31 12:00:00 24.9 10 Sudeste 27 Este 0 -- -- 61
2019-07-31 11:00:00 23.2 10 Sudeste 28 Sudeste 0 -- -- 66
2019-07-31 10:00:00 21.3 9 Sudeste 24 Sudeste 0 -- -- 78
2019-07-31 09:00:00 20.6 8 Sudeste 22 Este 0 -- -- 84
2019-07-31 08:00:00 20.4 10 Sudeste 28 Este 0 -- -- 86
2019-07-31 07:00:00 20.7 5 Sudeste 17 Sudeste 0 -- -- 88
2019-07-31 06:00:00 20.7 4 Sudeste 14 Nordeste 0 -- -- 87
2019-07-31 05:00:00 20.4 2 Sur 17 Sudeste 0 -- -- 87
2019-07-31 04:00:00 20.3 4 Sudeste 18 Sudeste 0 -- -- 87
2019-07-31 03:00:00 19.5 3 Sudeste 9 Sudeste 0 -- -- 90
2019-07-31 02:00:00 19.1 0 Calma 3 Este 0 -- -- 84
2019-07-31 01:00:00 19.9 0 Calma 4 Sudeste 0 -- -- 83
2019-07-31 00:00:00 20.7 0 Calma 8 Este 0 -- -- 81
2019-07-30 23:00:00 21.5 3 Sudeste 12 Este 0 -- -- 82
2019-07-30 22:00:00 22.5 3 Sudeste 14 Este 0 -- -- 79
2019-07-30 21:00:00 23.1 4 Sudeste 19 Sudeste 0 -- -- 74
2019-07-30 20:00:00 23.8 7 Sudeste 24 Sudeste 0 -- -- 72
2019-07-30 19:00:00 25.5 9 Sudeste 30 Sudeste 0 -- -- 66
2019-07-30 18:00:00 26.6 14 Sudeste 34 Sudeste 0 -- -- 61
2019-07-30 17:00:00 27.5 6 Sur 31 Sudeste 0 -- -- 58
2019-07-30 16:00:00 28.4 8 Sur 32 Este 0 -- -- 56
2019-07-30 15:00:00 28.9 9 Sudeste 30 Sudeste 0 -- -- 54
2019-07-30 14:00:00 29.2 12 Sudeste 27 Sudeste 0 -- -- 52
2019-07-30 13:00:00 28.7 10 Sudeste 26 Sudeste 0 -- -- 51
2019-07-30 12:00:00 27.5 8 Sudeste 18 Sudeste 0 -- -- 53
2019-07-30 11:00:00 26.1 6 Sur 17 Sudeste 0 -- -- 59
2019-07-30 10:00:00 23.8 7 Sudeste 20 Este 0 -- -- 65
2019-07-30 09:00:00 19.8 3 Sur 6 Sur 0 -- -- 74
2019-07-30 08:00:00 18 3 Norte 14 Noroeste 0 -- -- 60
2019-07-30 07:00:00 18.9 6 Noroeste 13 Noroeste 0 -- -- 59
2019-07-30 06:00:00 18.9 4 Norte 10 Noroeste 0 -- -- 58
2019-07-30 05:00:00 19.9 5 Noroeste 13 Noroeste 0 -- -- 56
2019-07-30 04:00:00 20.1 6 Noroeste 15 Noroeste 0 -- -- 54
2019-07-30 03:00:00 19.3 8 Noroeste 12 Noroeste 0 -- -- 62
2019-07-30 02:00:00 19.1 3 Norte 10 Norte 0 -- -- 63
2019-07-30 01:00:00 20.6 2 Noroeste 8 Noroeste 0 -- -- 59
2019-07-30 00:00:00 22 3 Norte 8 Noroeste 0 -- -- 55
2019-07-29 23:00:00 23.9 0 Calma 6 Noroeste 0 -- -- 50
2019-07-29 22:00:00 26.4 0 Calma 6 Sudeste 0 -- -- 45
2019-07-29 21:00:00 28.9 4 Sudeste 13 Sudeste 0 -- -- 40
2019-07-29 20:00:00 30.2 7 Sudeste 18 Sudeste 0 -- -- 41
2019-07-29 19:00:00 31.1 8 Sudeste 21 Sudeste 0 -- -- 39
2019-07-29 18:00:00 31.4 8 Sudeste 23 Sudeste 0 -- -- 41
2019-07-29 17:00:00 31.5 11 Sudeste 27 Este 0 -- -- 42
2019-07-29 16:00:00 34.1 9 Sudeste 28 Este 0 -- -- 40
2019-07-29 15:00:00 34.2 8 Noroeste 23 Oeste 0 -- -- 26
2019-07-29 14:00:00 32.9 5 Oeste 23 Oeste 0 -- -- 31
2019-07-29 13:00:00 31.3 6 Noroeste 18 Norte 0 -- -- 34
2019-07-29 12:00:00 30.1 10 Sudeste 19 Este 0 -- -- 42
2019-07-29 11:00:00 27.7 4 Noroeste 15 Oeste 0 -- -- 45
2019-07-29 10:00:00 24.3 6 Noroeste 15 Noroeste 0 -- -- 56
2019-07-29 09:00:00 18.6 4 Norte 10 Noroeste 0 -- -- 78
2019-07-29 08:00:00 15.7 4 Norte 11 Norte 0 -- -- 86
2019-07-29 07:00:00 15.2 5 Noroeste 12 Noroeste 0 -- -- 87
2019-07-29 06:00:00 15.4 5 Noroeste 12 Oeste 0 -- -- 85
2019-07-29 05:00:00 15.8 4 Noroeste 9 Noroeste 0 -- -- 84
2019-07-29 04:00:00 16.2 3 Noroeste 10 Noroeste 0 -- -- 82
2019-07-29 03:00:00 16.7 4 Noroeste 11 Norte 0 -- -- 81
2019-07-29 02:00:00 17.5 3 Noroeste 8 Noroeste 0 -- -- 80
2019-07-29 01:00:00 18.6 3 Noroeste 6 Oeste 0 -- -- 77
2019-07-29 00:00:00 19.5 2 Noroeste 4 Noroeste 0 -- -- 75
2019-07-28 23:00:00 20.7 0 Calma 4 Este 0 -- -- 71
2019-07-28 22:00:00 22.1 0 Calma 10 Sudeste 0 -- -- 69
2019-07-28 21:00:00 23.7 2 Sudeste 18 Este 0 -- -- 60
2019-07-28 20:00:00 25.7 9 Sudeste 21 Sudeste 0 -- -- 50
2019-07-28 19:00:00 26.5 9 Sudeste 24 Sudeste 0 -- -- 46
2019-07-28 18:00:00 27.5 13 Sudeste 27 Sudeste 0 -- -- 41
2019-07-28 17:00:00 28.6 10 Sudeste 29 Sudeste 0 -- -- 39
2019-07-28 16:00:00 28.9 10 Sudeste 36 Este 0 -- -- 37
2019-07-28 15:00:00 30.3 9 Este 28 Sudeste 0 -- -- 33
2019-07-28 14:00:00 30.2 6 Noroeste 23 Noroeste 0 -- -- 26
2019-07-28 13:00:00 28.5 6 Noroeste 21 Oeste 0 -- -- 29
2019-07-28 12:00:00 26.7 5 Oeste 18 Oeste 0 -- -- 34
2019-07-28 11:00:00 23.8 8 Oeste 21 Oeste 0 -- -- 40
2019-07-28 10:00:00 21.3 8 Noroeste 21 Noroeste 0 -- -- 47
2019-07-28 09:00:00 18.7 10 Noroeste 21 Oeste 0 -- -- 55
2019-07-28 08:00:00 16.4 0 Calma 10 Oeste 0 -- -- 60
2019-07-28 07:00:00 16.5 3 Norte 17 Norte 0 -- -- 62
2019-07-28 06:00:00 17.1 3 Noroeste 11 Noroeste 0 -- -- 62
2019-07-28 05:00:00 16.8 0 Calma 4 Noroeste 0 -- -- 64
2019-07-28 04:00:00 17.9 3 Norte 12 Noroeste 0 -- -- 62
2019-07-28 03:00:00 18.7 3 Noroeste 7 Norte 0 -- -- 60
2019-07-28 02:00:00 19.2 0 Calma 8 Norte 0 -- -- 57
2019-07-28 01:00:00 22 3 Sur 6 Este 0 -- -- 61
2019-07-28 00:00:00 23.9 0 Calma 8 Nordeste 0 -- -- 53
2019-07-27 23:00:00 25 0 Calma 9 Noroeste 0 -- -- 41
2019-07-26 12:00:00 28 5 Noroeste 13 Oeste 0 -- -- 41
2019-07-26 11:00:00 25.8 5 Noroeste 15 Noroeste 0 -- -- 46
2019-07-26 10:00:00 22.7 0 Calma 6 Noroeste 0 -- -- 61
2019-07-26 09:00:00 19.6 2 Norte 8 Noroeste 0 -- -- 67
2019-07-26 08:00:00 17 4 Noroeste 10 Norte 0 -- -- 74
2019-07-26 07:00:00 16.2 3 Norte 9 Norte 0 -- -- 77
2019-07-26 06:00:00 16.5 4 Noroeste 9 Norte 0 -- -- 76
2019-07-26 05:00:00 17 3 Norte 9 Noroeste 0 -- -- 76
2019-07-26 04:00:00 17.7 4 Noroeste 9 Noroeste 0 -- -- 74
2019-07-26 03:00:00 18.7 3 Norte 7 Norte 0 -- -- 71
2019-07-26 02:00:00 19.4 4 Norte 9 Noroeste 0 -- -- 68
2019-07-26 01:00:00 20.3 3 Noroeste 8 Noroeste 0 -- -- 67
2019-07-26 00:00:00 21.7 0 Calma 3 Sudeste 0 -- -- 64